sensor_id;sensor_type;location;lat;lon;timestamp;pressure;altitude;pressure_sealevel;temperature;humidity
37078;BME280;22989;55.998;37.212;2023-02-21T00:02:37;-11298.94;;;-145.39;60.55
37078;BME280;22989;55.998;37.212;2023-02-21T00:05:22;-11298.94;;;-145.39;60.57
37078;BME280;22989;55.998;37.212;2023-02-21T00:08:06;-11298.94;;;-145.39;60.48
37078;BME280;22989;55.998;37.212;2023-02-21T00:10:50;-11298.94;;;-145.39;60.64
37078;BME280;22989;55.998;37.212;2023-02-21T00:13:36;-11298.94;;;-145.39;60.40
37078;BME280;22989;55.998;37.212;2023-02-21T00:16:20;-11298.94;;;-145.39;60.44
37078;BME280;22989;55.998;37.212;2023-02-21T00:19:05;-11298.94;;;-145.39;60.48
37078;BME280;22989;55.998;37.212;2023-02-21T00:21:50;-11298.94;;;-145.39;60.36
37078;BME280;22989;55.998;37.212;2023-02-21T00:24:34;-11298.94;;;-145.39;60.39
37078;BME280;22989;55.998;37.212;2023-02-21T00:27:18;-11298.94;;;-145.39;60.14
37078;BME280;22989;55.998;37.212;2023-02-21T00:30:03;-11298.94;;;-145.39;60.12
37078;BME280;22989;55.998;37.212;2023-02-21T00:32:48;-11298.94;;;-145.39;59.95
37078;BME280;22989;55.998;37.212;2023-02-21T00:35:32;-11298.94;;;-145.39;59.81
37078;BME280;22989;55.998;37.212;2023-02-21T00:38:15;-11298.94;;;-145.39;59.79
37078;BME280;22989;55.998;37.212;2023-02-21T00:40:59;-11298.94;;;-145.39;59.78
37078;BME280;22989;55.998;37.212;2023-02-21T00:43:43;-11298.94;;;-145.39;59.69
37078;BME280;22989;55.998;37.212;2023-02-21T00:46:28;-11298.94;;;-145.39;59.80
37078;BME280;22989;55.998;37.212;2023-02-21T00:49:12;-11298.94;;;-145.39;59.69
37078;BME280;22989;55.998;37.212;2023-02-21T00:51:55;-11298.94;;;-145.39;59.55
37078;BME280;22989;55.998;37.212;2023-02-21T00:54:39;-11298.94;;;-145.39;59.50
37078;BME280;22989;55.998;37.212;2023-02-21T00:57:24;-11298.94;;;-145.39;59.69
37078;BME280;22989;55.998;37.212;2023-02-21T01:00:15;-11298.94;;;-145.39;59.61
37078;BME280;22989;55.998;37.212;2023-02-21T01:02:59;-11298.94;;;-145.39;59.60
37078;BME280;22989;55.998;37.212;2023-02-21T01:05:44;-11298.94;;;-145.39;59.57
37078;BME280;22989;55.998;37.212;2023-02-21T01:08:28;-11298.94;;;-145.39;59.64
37078;BME280;22989;55.998;37.212;2023-02-21T01:11:20;-11298.94;;;-145.39;59.66
37078;BME280;22989;55.998;37.212;2023-02-21T01:14:04;-11298.94;;;-145.39;59.67
37078;BME280;22989;55.998;37.212;2023-02-21T01:16:49;-11298.94;;;-145.39;59.75
37078;BME280;22989;55.998;37.212;2023-02-21T01:19:34;-11298.94;;;-145.39;59.77
37078;BME280;22989;55.998;37.212;2023-02-21T01:22:18;-11298.94;;;-145.39;59.68
37078;BME280;22989;55.998;37.212;2023-02-21T01:25:02;-11298.94;;;-145.39;59.84
37078;BME280;22989;55.998;37.212;2023-02-21T01:27:46;-11298.94;;;-145.39;59.84
37078;BME280;22989;55.998;37.212;2023-02-21T01:30:30;-11298.94;;;-145.39;59.67
37078;BME280;22989;55.998;37.212;2023-02-21T01:33:14;-11298.94;;;-145.39;59.81
37078;BME280;22989;55.998;37.212;2023-02-21T01:35:58;-11298.94;;;-145.39;60.03
37078;BME280;22989;55.998;37.212;2023-02-21T01:38:42;-11298.94;;;-145.39;59.84
37078;BME280;22989;55.998;37.212;2023-02-21T01:41:28;-11298.94;;;-145.39;59.82
37078;BME280;22989;55.998;37.212;2023-02-21T01:47:18;-11298.94;;;-145.39;59.72
37078;BME280;22989;55.998;37.212;2023-02-21T01:50:08;-11298.94;;;-145.39;59.93
37078;BME280;22989;55.998;37.212;2023-02-21T01:52:53;-11298.94;;;-145.39;59.97
37078;BME280;22989;55.998;37.212;2023-02-21T01:55:39;-11298.94;;;-145.39;59.89
37078;BME280;22989;55.998;37.212;2023-02-21T01:58:25;-11298.94;;;-145.39;59.94
37078;BME280;22989;55.998;37.212;2023-02-21T02:01:28;-11298.94;;;-145.39;59.93
37078;BME280;22989;55.998;37.212;2023-02-21T02:04:15;-11298.94;;;-145.39;59.94
37078;BME280;22989;55.998;37.212;2023-02-21T02:06:59;-11298.94;;;-145.39;59.83
37078;BME280;22989;55.998;37.212;2023-02-21T02:09:44;-11298.94;;;-145.39;59.89
37078;BME280;22989;55.998;37.212;2023-02-21T02:20:39;-11298.94;;;-145.39;59.97
37078;BME280;22989;55.998;37.212;2023-02-21T02:29:13;-11298.94;;;-145.39;60.13
37078;BME280;22989;55.998;37.212;2023-02-21T02:36:51;-11298.94;;;-145.39;59.99
37078;BME280;22989;55.998;37.212;2023-02-21T02:45:00;-11298.94;;;-145.39;60.08
37078;BME280;22989;55.998;37.212;2023-02-21T02:47:33;-11298.94;;;-145.39;60.02
37078;BME280;22989;55.998;37.212;2023-02-21T02:50:04;-11298.94;;;-145.39;60.02
37078;BME280;22989;55.998;37.212;2023-02-21T02:52:30;-11298.94;;;-145.39;60.03
37078;BME280;22989;55.998;37.212;2023-02-21T02:54:59;-11298.94;;;-145.39;60.06
37078;BME280;22989;55.998;37.212;2023-02-21T02:57:28;-11298.94;;;-145.39;60.06
37078;BME280;22989;55.998;37.212;2023-02-21T03:00:04;-11298.94;;;-145.39;59.91
37078;BME280;22989;55.998;37.212;2023-02-21T03:10:57;-11298.94;;;-145.39;59.89
37078;BME280;22989;55.998;37.212;2023-02-21T03:13:44;-11298.94;;;-145.39;59.77
37078;BME280;22989;55.998;37.212;2023-02-21T03:16:22;-11298.94;;;-145.39;59.79
37078;BME280;22989;55.998;37.212;2023-02-21T03:19:11;-11298.94;;;-145.39;59.81
37078;BME280;22989;55.998;37.212;2023-02-21T03:21:42;-11298.94;;;-145.39;59.77
37078;BME280;22989;55.998;37.212;2023-02-21T03:24:10;-11298.94;;;-145.39;59.76
37078;BME280;22989;55.998;37.212;2023-02-21T03:26:40;-11298.94;;;-145.39;59.74
37078;BME280;22989;55.998;37.212;2023-02-21T03:29:36;-11298.94;;;-145.39;59.83
37078;BME280;22989;55.998;37.212;2023-02-21T03:32:07;-11298.94;;;-145.39;59.74
37078;BME280;22989;55.998;37.212;2023-02-21T03:34:39;-11298.94;;;-145.39;59.55
37078;BME280;22989;55.998;37.212;2023-02-21T03:37:09;-11298.94;;;-145.39;59.80
37078;BME280;22989;55.998;37.212;2023-02-21T03:39:35;-11298.94;;;-145.39;59.70
37078;BME280;22989;55.998;37.212;2023-02-21T03:42:01;-11298.94;;;-145.39;59.71
37078;BME280;22989;55.998;37.212;2023-02-21T03:44:27;-11298.94;;;-145.39;59.72
37078;BME280;22989;55.998;37.212;2023-02-21T03:46:53;-11298.94;;;-145.39;59.73
37078;BME280;22989;55.998;37.212;2023-02-21T03:49:19;-11298.94;;;-145.39;59.79
37078;BME280;22989;55.998;37.212;2023-02-21T03:51:44;-11298.94;;;-145.39;59.74
37078;BME280;22989;55.998;37.212;2023-02-21T03:54:10;-11298.94;;;-145.39;59.77
37078;BME280;22989;55.998;37.212;2023-02-21T03:56:41;-11298.94;;;-145.39;59.66
37078;BME280;22989;55.998;37.212;2023-02-21T03:59:21;-11298.94;;;-145.39;59.68
37078;BME280;22989;55.998;37.212;2023-02-21T04:01:47;-11298.94;;;-145.39;59.74
37078;BME280;22989;55.998;37.212;2023-02-21T04:04:14;-11298.94;;;-145.39;59.74
37078;BME280;22989;55.998;37.212;2023-02-21T04:06:40;-11298.94;;;-145.39;59.72
37078;BME280;22989;55.998;37.212;2023-02-21T04:09:06;-11298.94;;;-145.39;59.74
37078;BME280;22989;55.998;37.212;2023-02-21T04:11:32;-11298.94;;;-145.39;59.72
37078;BME280;22989;55.998;37.212;2023-02-21T04:13:58;-11298.94;;;-145.39;59.83
37078;BME280;22989;55.998;37.212;2023-02-21T04:16:24;-11298.94;;;-145.39;59.75
37078;BME280;22989;55.998;37.212;2023-02-21T04:18:51;-11298.94;;;-145.39;59.62
37078;BME280;22989;55.998;37.212;2023-02-21T04:21:18;-11298.94;;;-145.39;59.70
37078;BME280;22989;55.998;37.212;2023-02-21T04:23:45;-11298.94;;;-145.39;59.79
37078;BME280;22989;55.998;37.212;2023-02-21T04:26:11;-11298.94;;;-145.39;59.79
37078;BME280;22989;55.998;37.212;2023-02-21T04:28:42;-11298.94;;;-145.39;59.84
37078;BME280;22989;55.998;37.212;2023-02-21T04:31:07;-11298.94;;;-145.39;59.74
37078;BME280;22989;55.998;37.212;2023-02-21T04:33:33;-11298.94;;;-145.39;59.79
37078;BME280;22989;55.998;37.212;2023-02-21T04:35:59;-11298.94;;;-145.39;59.69
37078;BME280;22989;55.998;37.212;2023-02-21T04:38:33;-11298.94;;;-145.39;59.79
37078;BME280;22989;55.998;37.212;2023-02-21T04:40:58;-11298.94;;;-145.39;59.89
37078;BME280;22989;55.998;37.212;2023-02-21T04:43:24;-11298.94;;;-145.39;59.94
37078;BME280;22989;55.998;37.212;2023-02-21T04:45:50;-11298.94;;;-145.39;59.90
37078;BME280;22989;55.998;37.212;2023-02-21T04:48:15;-11298.94;;;-145.39;59.87
37078;BME280;22989;55.998;37.212;2023-02-21T04:50:42;-11298.94;;;-145.39;59.84
37078;BME280;22989;55.998;37.212;2023-02-21T04:53:07;-11298.94;;;-145.39;59.84
37078;BME280;22989;55.998;37.212;2023-02-21T04:55:33;-11298.94;;;-145.39;59.71
37078;BME280;22989;55.998;37.212;2023-02-21T04:57:58;-11298.94;;;-145.39;59.83
37078;BME280;22989;55.998;37.212;2023-02-21T05:00:24;-11298.94;;;-145.39;59.79
37078;BME280;22989;55.998;37.212;2023-02-21T05:02:50;-11298.94;;;-145.39;59.87
37078;BME280;22989;55.998;37.212;2023-02-21T05:05:15;-11298.94;;;-145.39;60.00
37078;BME280;22989;55.998;37.212;2023-02-21T05:07:41;-11298.94;;;-145.39;59.74
37078;BME280;22989;55.998;37.212;2023-02-21T05:10:08;-11298.94;;;-145.39;59.79
37078;BME280;22989;55.998;37.212;2023-02-21T05:12:34;-11298.94;;;-145.39;59.68
37078;BME280;22989;55.998;37.212;2023-02-21T05:15:02;-11298.94;;;-145.39;59.81
37078;BME280;22989;55.998;37.212;2023-02-21T05:17:28;-11298.94;;;-145.39;59.57
37078;BME280;22989;55.998;37.212;2023-02-21T05:19:54;-11298.94;;;-145.39;59.66
37078;BME280;22989;55.998;37.212;2023-02-21T05:22:19;-11298.94;;;-145.39;59.52
37078;BME280;22989;55.998;37.212;2023-02-21T05:24:45;-11298.94;;;-145.39;59.50
37078;BME280;22989;55.998;37.212;2023-02-21T05:27:17;-11298.94;;;-145.39;59.37
37078;BME280;22989;55.998;37.212;2023-02-21T05:29:52;-11298.94;;;-145.39;59.25
37078;BME280;22989;55.998;37.212;2023-02-21T05:32:20;-11298.94;;;-145.39;58.92
37078;BME280;22989;55.998;37.212;2023-02-21T05:34:45;-11298.94;;;-145.39;58.97
37078;BME280;22989;55.998;37.212;2023-02-21T05:37:13;-11298.94;;;-145.39;58.99
37078;BME280;22989;55.998;37.212;2023-02-21T05:39:39;-11298.94;;;-145.39;58.99
37078;BME280;22989;55.998;37.212;2023-02-21T05:42:05;-11298.94;;;-145.39;58.98
37078;BME280;22989;55.998;37.212;2023-02-21T05:44:32;-11298.94;;;-145.39;58.68
37078;BME280;22989;55.998;37.212;2023-02-21T05:46:58;-11298.94;;;-145.39;58.72
37078;BME280;22989;55.998;37.212;2023-02-21T05:49:23;-11298.94;;;-145.39;58.59
37078;BME280;22989;55.998;37.212;2023-02-21T05:51:49;-11298.94;;;-145.39;58.52
37078;BME280;22989;55.998;37.212;2023-02-21T05:54:19;-11298.94;;;-145.39;58.44
37078;BME280;22989;55.998;37.212;2023-02-21T05:56:46;-11298.94;;;-145.39;58.11
37078;BME280;22989;55.998;37.212;2023-02-21T05:59:13;-11298.94;;;-145.39;58.07
37078;BME280;22989;55.998;37.212;2023-02-21T06:01:39;-11298.94;;;-145.39;57.94
37078;BME280;22989;55.998;37.212;2023-02-21T06:04:05;-11298.94;;;-145.39;58.13
37078;BME280;22989;55.998;37.212;2023-02-21T06:06:33;-11298.94;;;-145.39;57.61
37078;BME280;22989;55.998;37.212;2023-02-21T06:08:59;-11298.94;;;-145.39;57.70
37078;BME280;22989;55.998;37.212;2023-02-21T06:11:27;-11298.94;;;-145.39;57.54
37078;BME280;22989;55.998;37.212;2023-02-21T06:13:55;-11298.94;;;-145.39;57.38
37078;BME280;22989;55.998;37.212;2023-02-21T06:16:22;-11298.94;;;-145.39;57.21
37078;BME280;22989;55.998;37.212;2023-02-21T06:18:49;-11298.94;;;-145.39;56.95
37078;BME280;22989;55.998;37.212;2023-02-21T06:21:16;-11298.94;;;-145.39;56.37
37078;BME280;22989;55.998;37.212;2023-02-21T06:23:41;-11298.94;;;-145.39;55.98
37078;BME280;22989;55.998;37.212;2023-02-21T06:26:07;-11298.94;;;-145.39;56.00
37078;BME280;22989;55.998;37.212;2023-02-21T06:28:32;-11298.94;;;-145.39;55.73
37078;BME280;22989;55.998;37.212;2023-02-21T06:30:58;-11298.94;;;-145.39;55.75
37078;BME280;22989;55.998;37.212;2023-02-21T06:33:24;-11298.94;;;-145.39;55.71
37078;BME280;22989;55.998;37.212;2023-02-21T06:35:50;-11298.94;;;-145.39;55.54
37078;BME280;22989;55.998;37.212;2023-02-21T06:38:15;-11298.94;;;-145.39;55.27
37078;BME280;22989;55.998;37.212;2023-02-21T06:40:41;-11298.94;;;-145.39;55.56
37078;BME280;22989;55.998;37.212;2023-02-21T06:43:07;-11298.94;;;-145.39;55.46
37078;BME280;22989;55.998;37.212;2023-02-21T06:45:33;-11298.94;;;-145.39;54.85
37078;BME280;22989;55.998;37.212;2023-02-21T06:47:58;-11298.94;;;-145.39;55.03
37078;BME280;22989;55.998;37.212;2023-02-21T06:50:24;-11298.94;;;-145.39;54.97
37078;BME280;22989;55.998;37.212;2023-02-21T06:52:50;-11298.94;;;-145.39;54.82
37078;BME280;22989;55.998;37.212;2023-02-21T06:55:20;-11298.94;;;-145.39;54.83
37078;BME280;22989;55.998;37.212;2023-02-21T06:57:45;-11298.94;;;-145.39;54.91
37078;BME280;22989;55.998;37.212;2023-02-21T07:00:11;-11298.94;;;-145.39;54.98
37078;BME280;22989;55.998;37.212;2023-02-21T07:02:37;-11298.94;;;-145.39;54.96
37078;BME280;22989;55.998;37.212;2023-02-21T07:05:04;-11298.94;;;-145.39;55.27
37078;BME280;22989;55.998;37.212;2023-02-21T07:07:30;-11298.94;;;-145.39;55.20
37078;BME280;22989;55.998;37.212;2023-02-21T07:09:55;-11298.94;;;-145.39;54.26
37078;BME280;22989;55.998;37.212;2023-02-21T07:12:21;-11298.94;;;-145.39;53.35
37078;BME280;22989;55.998;37.212;2023-02-21T07:14:47;-11298.94;;;-145.39;52.40
37078;BME280;22989;55.998;37.212;2023-02-21T07:17:12;-11298.94;;;-145.39;51.32
37078;BME280;22989;55.998;37.212;2023-02-21T07:19:38;-11298.94;;;-145.39;50.21
37078;BME280;22989;55.998;37.212;2023-02-21T07:22:04;-11298.94;;;-145.39;49.06
37078;BME280;22989;55.998;37.212;2023-02-21T07:24:30;-11298.94;;;-145.39;47.67
37078;BME280;22989;55.998;37.212;2023-02-21T07:26:56;-11298.94;;;-145.39;47.33
37078;BME280;22989;55.998;37.212;2023-02-21T07:29:21;-11298.94;;;-145.39;47.71
37078;BME280;22989;55.998;37.212;2023-02-21T07:31:47;-11298.94;;;-145.39;47.46
37078;BME280;22989;55.998;37.212;2023-02-21T07:34:12;-11298.94;;;-145.39;47.71
37078;BME280;22989;55.998;37.212;2023-02-21T07:36:39;-11298.94;;;-145.39;47.41
37078;BME280;22989;55.998;37.212;2023-02-21T07:39:05;-11298.94;;;-145.39;47.44
37078;BME280;22989;55.998;37.212;2023-02-21T07:41:30;-11298.94;;;-145.39;47.98
37078;BME280;22989;55.998;37.212;2023-02-21T07:43:56;-11298.94;;;-145.39;48.14
37078;BME280;22989;55.998;37.212;2023-02-21T07:46:25;-11298.94;;;-145.39;48.08
37078;BME280;22989;55.998;37.212;2023-02-21T07:48:51;-11298.94;;;-145.39;48.65
37078;BME280;22989;55.998;37.212;2023-02-21T07:51:17;-11298.94;;;-145.39;49.17
37078;BME280;22989;55.998;37.212;2023-02-21T07:53:43;-11298.94;;;-145.39;49.24
37078;BME280;22989;55.998;37.212;2023-02-21T07:56:08;-11298.94;;;-145.39;49.45
37078;BME280;22989;55.998;37.212;2023-02-21T07:58:34;-11298.94;;;-145.39;49.27
37078;BME280;22989;55.998;37.212;2023-02-21T08:01:03;-11298.94;;;-145.39;49.19
37078;BME280;22989;55.998;37.212;2023-02-21T08:03:29;-11298.94;;;-145.39;49.34
37078;BME280;22989;55.998;37.212;2023-02-21T08:05:57;-11298.94;;;-145.39;49.06
37078;BME280;22989;55.998;37.212;2023-02-21T08:08:22;-11298.94;;;-145.39;49.70
37078;BME280;22989;55.998;37.212;2023-02-21T08:10:48;-11298.94;;;-145.39;49.65
37078;BME280;22989;55.998;37.212;2023-02-21T08:13:14;-11298.94;;;-145.39;49.85
37078;BME280;22989;55.998;37.212;2023-02-21T08:15:40;-11298.94;;;-145.39;50.07
37078;BME280;22989;55.998;37.212;2023-02-21T08:18:05;-11298.94;;;-145.39;50.12
37078;BME280;22989;55.998;37.212;2023-02-21T08:20:31;-11298.94;;;-145.39;50.30
37078;BME280;22989;55.998;37.212;2023-02-21T08:22:57;-11298.94;;;-145.39;50.60
37078;BME280;22989;55.998;37.212;2023-02-21T08:25:23;-11298.94;;;-145.39;50.94
37078;BME280;22989;55.998;37.212;2023-02-21T08:27:48;-11298.94;;;-145.39;51.20
37078;BME280;22989;55.998;37.212;2023-02-21T08:30:18;-11298.94;;;-145.39;51.34
37078;BME280;22989;55.998;37.212;2023-02-21T08:32:44;-11298.94;;;-145.39;51.36
37078;BME280;22989;55.998;37.212;2023-02-21T08:35:14;-11298.94;;;-145.39;51.49
37078;BME280;22989;55.998;37.212;2023-02-21T08:37:46;-11298.94;;;-145.39;51.57
37078;BME280;22989;55.998;37.212;2023-02-21T08:40:12;-11298.94;;;-145.39;51.82
37078;BME280;22989;55.998;37.212;2023-02-21T08:42:38;-11298.94;;;-145.39;52.07
37078;BME280;22989;55.998;37.212;2023-02-21T08:45:04;-11298.94;;;-145.39;51.46
37078;BME280;22989;55.998;37.212;2023-02-21T08:47:33;-11298.94;;;-145.39;50.67
37078;BME280;22989;55.998;37.212;2023-02-21T08:49:59;-11298.94;;;-145.39;50.90
37078;BME280;22989;55.998;37.212;2023-02-21T08:52:25;-11298.94;;;-145.39;51.20
37078;BME280;22989;55.998;37.212;2023-02-21T08:54:50;-11298.94;;;-145.39;51.03
37078;BME280;22989;55.998;37.212;2023-02-21T08:57:16;-11298.94;;;-145.39;51.01
37078;BME280;22989;55.998;37.212;2023-02-21T08:59:42;-11298.94;;;-145.39;51.38
37078;BME280;22989;55.998;37.212;2023-02-21T09:02:20;-11298.94;;;-145.39;51.19
37078;BME280;22989;55.998;37.212;2023-02-21T09:04:47;-11298.94;;;-145.39;51.37
37078;BME280;22989;55.998;37.212;2023-02-21T09:07:14;-11298.94;;;-145.39;51.34
37078;BME280;22989;55.998;37.212;2023-02-21T09:09:40;-11298.94;;;-145.39;50.97
37078;BME280;22989;55.998;37.212;2023-02-21T09:12:07;-11298.94;;;-145.39;51.04
37078;BME280;22989;55.998;37.212;2023-02-21T09:14:37;-11298.94;;;-145.39;51.38
37078;BME280;22989;55.998;37.212;2023-02-21T09:17:05;-11298.94;;;-145.39;51.37
37078;BME280;22989;55.998;37.212;2023-02-21T09:19:31;-11298.94;;;-145.39;51.38
37078;BME280;22989;55.998;37.212;2023-02-21T09:21:58;-11298.94;;;-145.39;51.37
37078;BME280;22989;55.998;37.212;2023-02-21T09:24:24;-11298.94;;;-145.39;51.29
37078;BME280;22989;55.998;37.212;2023-02-21T09:26:51;-11298.94;;;-145.39;50.64
37078;BME280;22989;55.998;37.212;2023-02-21T09:29:22;-11298.94;;;-145.39;50.21
37078;BME280;22989;55.998;37.212;2023-02-21T09:31:48;-11298.94;;;-145.39;49.67
37078;BME280;22989;55.998;37.212;2023-02-21T09:34:14;-11298.94;;;-145.39;49.97
37078;BME280;22989;55.998;37.212;2023-02-21T09:36:40;-11298.94;;;-145.39;49.91
37078;BME280;22989;55.998;37.212;2023-02-21T09:39:06;-11298.94;;;-145.39;49.26
37078;BME280;22989;55.998;37.212;2023-02-21T09:41:34;-11298.94;;;-145.39;49.33
37078;BME280;22989;55.998;37.212;2023-02-21T09:44:00;-11298.94;;;-145.39;49.63
37078;BME280;22989;55.998;37.212;2023-02-21T09:46:35;-11298.94;;;-145.39;49.16
37078;BME280;22989;55.998;37.212;2023-02-21T09:49:11;-11298.94;;;-145.39;49.09
37078;BME280;22989;55.998;37.212;2023-02-21T09:51:39;-11298.94;;;-145.39;49.04
37078;BME280;22989;55.998;37.212;2023-02-21T09:54:14;-11298.94;;;-145.39;49.31
37078;BME280;22989;55.998;37.212;2023-02-21T09:56:42;-11298.94;;;-145.39;49.64
37078;BME280;22989;55.998;37.212;2023-02-21T09:59:10;-11298.94;;;-145.39;49.91
37078;BME280;22989;55.998;37.212;2023-02-21T10:01:52;-11298.94;;;-145.39;49.87
37078;BME280;22989;55.998;37.212;2023-02-21T10:07:01;-11298.94;;;-145.39;49.01
37078;BME280;22989;55.998;37.212;2023-02-21T10:09:48;-11298.94;;;-145.39;48.97
37078;BME280;22989;55.998;37.212;2023-02-21T10:12:32;-11298.94;;;-145.39;48.96
37078;BME280;22989;55.998;37.212;2023-02-21T10:20:55;-11298.94;;;-145.39;48.47
37078;BME280;22989;55.998;37.212;2023-02-21T10:23:28;-11298.94;;;-145.39;48.38
37078;BME280;22989;55.998;37.212;2023-02-21T10:25:58;-11298.94;;;-145.39;47.88
37078;BME280;22989;55.998;37.212;2023-02-21T10:28:27;-11298.94;;;-145.39;47.52
37078;BME280;22989;55.998;37.212;2023-02-21T10:31:02;-11298.94;;;-145.39;47.81
37078;BME280;22989;55.998;37.212;2023-02-21T10:33:32;-11298.94;;;-145.39;47.57
37078;BME280;22989;55.998;37.212;2023-02-21T10:36:00;-11298.94;;;-145.39;47.53
37078;BME280;22989;55.998;37.212;2023-02-21T10:38:26;-11298.94;;;-145.39;47.54
37078;BME280;22989;55.998;37.212;2023-02-21T10:40:56;-11298.94;;;-145.39;47.95
37078;BME280;22989;55.998;37.212;2023-02-21T10:43:47;-11298.94;;;-145.39;48.07
37078;BME280;22989;55.998;37.212;2023-02-21T10:48:52;-11298.94;;;-145.39;48.08
37078;BME280;22989;55.998;37.212;2023-02-21T10:51:32;-11298.94;;;-145.39;47.85
37078;BME280;22989;55.998;37.212;2023-02-21T10:54:20;-11298.94;;;-145.39;47.58
37078;BME280;22989;55.998;37.212;2023-02-21T10:56:51;-11298.94;;;-145.39;47.25
37078;BME280;22989;55.998;37.212;2023-02-21T11:01:45;-11298.94;;;-145.39;47.05
37078;BME280;22989;55.998;37.212;2023-02-21T11:06:46;-11298.94;;;-145.39;47.54
37078;BME280;22989;55.998;37.212;2023-02-21T11:14:40;-11298.94;;;-145.39;47.76
37078;BME280;22989;55.998;37.212;2023-02-21T11:22:34;-11298.94;;;-145.39;47.08
37078;BME280;22989;55.998;37.212;2023-02-21T11:25:06;-11298.94;;;-145.39;47.22
37078;BME280;22989;55.998;37.212;2023-02-21T11:27:34;-11298.94;;;-145.39;47.35
37078;BME280;22989;55.998;37.212;2023-02-21T11:30:08;-11298.94;;;-145.39;47.45
37078;BME280;22989;55.998;37.212;2023-02-21T11:32:37;-11298.94;;;-145.39;47.47
37078;BME280;22989;55.998;37.212;2023-02-21T11:37:55;-11298.94;;;-145.39;47.52
37078;BME280;22989;55.998;37.212;2023-02-21T11:40:26;-11298.94;;;-145.39;47.71
37078;BME280;22989;55.998;37.212;2023-02-21T11:46:04;-11298.94;;;-145.39;47.34
37078;BME280;22989;55.998;37.212;2023-02-21T11:49:16;-11298.94;;;-145.39;47.64
37078;BME280;22989;55.998;37.212;2023-02-21T11:51:53;-11298.94;;;-145.39;47.26
37078;BME280;22989;55.998;37.212;2023-02-21T11:54:27;-11298.94;;;-145.39;46.93
37078;BME280;22989;55.998;37.212;2023-02-21T12:05:27;-11298.94;;;-145.39;47.41
37078;BME280;22989;55.998;37.212;2023-02-21T12:13:22;-11298.94;;;-145.39;48.24
37078;BME280;22989;55.998;37.212;2023-02-21T12:16:21;-11298.94;;;-145.39;48.38
37078;BME280;22989;55.998;37.212;2023-02-21T12:19:11;-11298.94;;;-145.39;48.48
37078;BME280;22989;55.998;37.212;2023-02-21T12:46:46;-11298.94;;;-145.39;47.88
37078;BME280;22989;55.998;37.212;2023-02-21T12:49:19;-11298.94;;;-145.39;47.95
37078;BME280;22989;55.998;37.212;2023-02-21T12:54:22;-11298.94;;;-145.39;48.09
37078;BME280;22989;55.998;37.212;2023-02-21T12:57:02;-11298.94;;;-145.39;47.97
37078;BME280;22989;55.998;37.212;2023-02-21T12:59:47;-11298.94;;;-145.39;48.28
37078;BME280;22989;55.998;37.212;2023-02-21T13:02:33;-11298.94;;;-145.39;48.38
37078;BME280;22989;55.998;37.212;2023-02-21T13:05:12;-11298.94;;;-145.39;48.35
37078;BME280;22989;55.998;37.212;2023-02-21T13:07:44;-11298.94;;;-145.39;48.55
37078;BME280;22989;55.998;37.212;2023-02-21T13:10:21;-11298.94;;;-145.39;48.68
37078;BME280;22989;55.998;37.212;2023-02-21T13:13:33;-11298.94;;;-145.39;48.73
37078;BME280;22989;55.998;37.212;2023-02-21T13:15:53;-11298.94;;;-145.39;48.76
37078;BME280;22989;55.998;37.212;2023-02-21T13:18:29;-11298.94;;;-145.39;48.78
37078;BME280;22989;55.998;37.212;2023-02-21T13:21:22;-11298.94;;;-145.39;48.84
37078;BME280;22989;55.998;37.212;2023-02-21T13:27:32;-11298.94;;;-145.39;48.79
37078;BME280;22989;55.998;37.212;2023-02-21T13:32:39;-11298.94;;;-145.39;48.79
37078;BME280;22989;55.998;37.212;2023-02-21T13:35:07;-11298.94;;;-145.39;48.90
37078;BME280;22989;55.998;37.212;2023-02-21T13:37:35;-11298.94;;;-145.39;48.77
37078;BME280;22989;55.998;37.212;2023-02-21T13:40:21;-11298.94;;;-145.39;49.20
37078;BME280;22989;55.998;37.212;2023-02-21T13:43:21;-11298.94;;;-145.39;48.99
37078;BME280;22989;55.998;37.212;2023-02-21T13:45:43;-11298.94;;;-145.39;49.15
37078;BME280;22989;55.998;37.212;2023-02-21T13:50:49;-11298.94;;;-145.39;49.06
37078;BME280;22989;55.998;37.212;2023-02-21T13:53:30;-11298.94;;;-145.39;49.22
37078;BME280;22989;55.998;37.212;2023-02-21T13:58:33;-11298.94;;;-145.39;49.29
37078;BME280;22989;55.998;37.212;2023-02-21T14:01:18;-11298.94;;;-145.39;49.63
37078;BME280;22989;55.998;37.212;2023-02-21T14:03:47;-11298.94;;;-145.39;49.36
37078;BME280;22989;55.998;37.212;2023-02-21T14:08:53;-11298.94;;;-145.39;49.68
37078;BME280;22989;55.998;37.212;2023-02-21T14:11:28;-11298.94;;;-145.39;49.88
37078;BME280;22989;55.998;37.212;2023-02-21T14:14:04;-11298.94;;;-145.39;50.20
37078;BME280;22989;55.998;37.212;2023-02-21T14:19:09;-11298.94;;;-145.39;50.09
37078;BME280;22989;55.998;37.212;2023-02-21T14:21:44;-11298.94;;;-145.39;50.33
37078;BME280;22989;55.998;37.212;2023-02-21T14:24:15;-11298.94;;;-145.39;50.44
37078;BME280;22989;55.998;37.212;2023-02-21T14:34:14;-11298.94;;;-145.39;50.61
37078;BME280;22989;55.998;37.212;2023-02-21T14:36:42;-11298.94;;;-145.39;50.78
37078;BME280;22989;55.998;37.212;2023-02-21T14:39:09;-11298.94;;;-145.39;51.02
37078;BME280;22989;55.998;37.212;2023-02-21T14:57:57;-11298.94;;;-145.39;51.70
37078;BME280;22989;55.998;37.212;2023-02-21T15:03:16;-11298.94;;;-145.39;51.68
37078;BME280;22989;55.998;37.212;2023-02-21T15:08:21;-11298.94;;;-145.39;52.17
37078;BME280;22989;55.998;37.212;2023-02-21T15:10:53;-11298.94;;;-145.39;52.22
37078;BME280;22989;55.998;37.212;2023-02-21T15:13:26;-11298.94;;;-145.39;52.47
37078;BME280;22989;55.998;37.212;2023-02-21T15:16:05;-11298.94;;;-145.39;52.45
37078;BME280;22989;55.998;37.212;2023-02-21T15:18:35;-11298.94;;;-145.39;52.33
37078;BME280;22989;55.998;37.212;2023-02-21T15:23:38;-11298.94;;;-145.39;52.39
37078;BME280;22989;55.998;37.212;2023-02-21T15:26:20;-11298.94;;;-145.39;52.46